• Join FlightAware (Why Join?)
  • Login
  • US Flag 
12:53AM EDT


 

Airport Tracker/Info


-or-


 

Live Flight TrackerFlight Track Log ✈ UAL4457 ✈ 26-Apr-2013 ✈ KIAH - KLEX

Flight Track Log - Related Links

Times and Time Zones

All times are in EDT time to prevent confusion due to time zone crossing. See the UAL4457 flight status page for this flight to view local times or setup timezone preferences in your user account.

Time Position Orientation Groundspeed Altitude Reporting Facility
EDT Latitude Longitude Course Direction KTS MPH feet Rate Location/Type
03:27PM 29.9769 -95.3031 41° Northeast 169 194 600  Level Houston Center
03:28PM 29.9853 -95.2803 67° East 198 228 1,600 2,400 Climbing Houston Center
03:29PM 30.0461 -95.2567 19° North 263 303 3,900 1,800 Climbing Houston Center
03:30PM 30.1181 -95.2275 19° North 269 310 5,200 1,980 Climbing Houston Center
03:31PM 30.2008 -95.2175 North 291 335 8,000 2,520 Climbing Houston Center
03:32PM 30.4657 -94.9500 North  Level FlightAware Approximate
03:32PM 30.2747 -95.1669 31° Northeast 315 362 10,500  Level Houston Center
03:33PM 30.5601 -94.8732 41° Northeast  Level FlightAware Approximate
03:33PM 30.3464 -95.0969 40° Northeast 331 381 11,700  Level Houston Center
03:34PM 30.4375 -95.0044 41° Northeast 359 413 13,900 1,860 Climbing Houston Center
03:35PM 30.5128 -94.9286 41° Northeast 356 410 15,600 1,560 Climbing Houston Center
03:36PM 30.5989 -94.8539 37° Northeast 371 427 17,200 1,380 Climbing Houston Center
03:37PM 30.6903 -94.7847 33° Northeast 380 437 18,500 1,320 Climbing Houston Center
03:38PM 30.7803 -94.7142 34° Northeast 386 444 20,000 1,800 Climbing Houston Center
03:39PM 30.8900 -94.6294 34° Northeast 392 451 22,300 1,980 Climbing Houston Center
03:40PM 30.9811 -94.5594 33° Northeast 396 456 24,100 1,380 Climbing Houston Center
03:41PM 31.0503 -94.5039 35° Northeast 391 450 25,000 480 Climbing Fort Worth Center
03:42PM 31.1511 -94.4350 30° Northeast 401 461 25,000 600 Level Fort Worth Center
03:43PM 31.2533 -94.3467 36° Northeast 429 494 26,300 1,740 Climbing Fort Worth Center
03:44PM 31.3517 -94.2706 33° Northeast 436 502 28,500 1,740 Climbing Fort Worth Center
03:45PM 31.4481 -94.1967 33° Northeast 426 490 29,800 1,500 Climbing Fort Worth Center
03:46PM 31.5400 -94.1253 33° Northeast 409 471 31,500 1,680 Climbing Fort Worth Center
03:47PM 31.6342 -94.0511 34° Northeast 403 464 33,200 1,500 Climbing Fort Worth Center
03:48PM 31.7200 -93.9894 31° Northeast 385 443 34,500 900 Climbing Fort Worth Center
03:49PM 31.8100 -93.9175 34° Northeast 380 437 35,000 240 Climbing Fort Worth Center
03:50PM 31.9100 -93.8403 33° Northeast 397 457 35,000  Level Fort Worth Center
03:51PM 32.0119 -93.7531 36° Northeast 427 491 35,000  Level Fort Worth Center
03:52PM 32.1222 -93.6703 32° Northeast 445 512 35,000  Level Fort Worth Center
03:53PM 32.2258 -93.5728 39° Northeast 469 540 35,000  Level Fort Worth Center
03:54PM 32.3358 -93.4894 33° Northeast 469 540 35,000  Level Fort Worth Center
03:55PM 32.4436 -93.3986 35° Northeast 469 540 35,000  Level Fort Worth Center
03:56PM 32.5536 -93.3122 33° Northeast 469 540 35,000  Level Fort Worth Center
03:57PM 32.6614 -93.2258 34° Northeast 469 540 35,000  Level Fort Worth Center
03:58PM 32.7692 -93.1369 35° Northeast 469 540 35,000  Level Fort Worth Center
03:59PM 32.8767 -93.0503 34° Northeast 469 540 35,000  Level Fort Worth Center
04:00PM 32.9864 -92.9631 34° Northeast 474 545 35,000  Level Fort Worth Center
04:01PM 33.0939 -92.8761 34° Northeast 474 545 35,000  Level Fort Worth Center
04:02PM 33.2781 -92.7128 37° Northeast 468 539 35,000  Level Memphis Center
04:03PM 33.3619 -92.5858 52° Northeast 468 539 35,000  Level Memphis Center
04:04PM 33.4475 -92.4561 52° Northeast 481 554 35,000  Level Memphis Center
04:05PM 33.5311 -92.3283 52° Northeast 481 554 35,000  Level Memphis Center
04:06PM 33.6122 -92.2031 52° Northeast 481 554 35,000 120 Level Memphis Center
04:07PM 33.6978 -92.0750 51° Northeast 481 554 35,300 600 Climbing Memphis Center
04:08PM 33.7764 -91.9542 52° Northeast 475 547 36,200 840 Climbing Memphis Center
04:09PM 33.8511 -91.8353 53° Northeast 465 535 37,000 360 Climbing Memphis Center
04:10PM 33.9275 -91.7142 53° Northeast 457 526 37,000  Level Memphis Center
04:11PM 34.0039 -91.5975 52° Northeast 450 518 37,000  Level Memphis Center
04:12PM 34.0842 -91.4733 52° Northeast 458 527 37,000  Level Memphis Center
04:13PM 34.1647 -91.3489 52° Northeast 465 535 37,000  Level Memphis Center
04:14PM 34.2450 -91.2214 53° Northeast 465 535 37,000  Level Memphis Center
04:15PM 34.3208 -91.1017 52° Northeast 458 527 37,000  Level Memphis Center
04:16PM 34.3986 -90.9789 52° Northeast 453 521 37,000  Level Memphis Center
04:17PM 34.4658 -90.8686 54° Northeast 453 521 37,000  Level Memphis Center
04:18PM 34.5436 -90.7453 53° Northeast 453 521 37,000  Level Memphis Center
04:19PM 34.6189 -90.6247 53° Northeast 459 528 37,000  Level Memphis Center
04:20PM 34.6944 -90.5011 53° Northeast 459 528 37,000  Level Memphis Center
04:21PM 34.7717 -90.3747 53° Northeast 459 528 37,000  Level Memphis Center
04:22PM 34.8486 -90.2533 52° Northeast 459 528 37,000  Level Memphis Center
04:23PM 34.9361 -90.1164 52° Northeast 459 528 37,000  Level Memphis Center
04:24PM 35.0172 -89.9894 52° Northeast 464 534 37,000  Level Memphis Center
04:25PM 35.0731 -89.8444 65° Northeast 464 534 37,000  Level Memphis Center
04:26PM 35.1244 -89.6944 67° East 475 547 37,000  Level Memphis Center
04:27PM 35.1736 -89.5492 67° East 469 540 37,000  Level Memphis Center
04:28PM 35.2186 -89.4192 67° East 469 540 37,000  Level Memphis Center
04:29PM 35.2675 -89.2789 67° East 452 520 37,000  Level Memphis Center
04:30PM 35.3183 -89.1331 67° East 460 529 37,000  Level Memphis Center
04:31PM 35.3669 -88.9897 67° East 455 524 37,000  Level Memphis Center
04:32PM 35.4175 -88.8464 67° East 460 529 37,000  Level Memphis Center
04:33PM 35.4656 -88.6900 69° East 452 520 37,000  Level Memphis Center
04:34PM 35.5175 -88.5408 67° East 458 527 37,000  Level Memphis Center
04:35PM 35.5697 -88.3967 66° East 458 527 37,000  Level Memphis Center
04:36PM 35.6192 -88.2475 68° East 458 527 37,000  Level Memphis Center
04:37PM 35.6631 -88.1211 67° East 458 527 37,000  Level Memphis Center
04:38PM 35.7144 -87.9689 67° East 463 533 37,000  Level Memphis Center
04:39PM 35.7656 -87.8164 68° East 469 540 37,000  Level Memphis Center
04:40PM 35.8164 -87.6639 68° East 477 549 37,000  Level Memphis Center
04:41PM 35.8711 -87.4956 68° East 477 549 37,000  Level Memphis Center
04:42PM 35.9217 -87.3425 68° East 482 555 37,000  Level Memphis Center
04:43PM 35.9719 -87.1844 69° East 482 555 37,000  Level Memphis Center
04:44PM 36.0242 -87.0283 67° East 482 555 37,000 -540 Level Memphis Center
04:45PM 36.0719 -86.8697 70° East 482 555 36,000 -1,080 Descending Memphis Center
04:46PM 36.1258 -86.7133 67° East 487 560 34,900 -900 Descending Memphis Center
04:47PM 36.2033 -86.5811 54° Northeast 479 551 34,200 -1,320 Descending Memphis Center
04:48PM 36.2869 -86.4614 49° Northeast 466 536 32,300 -1,980 Descending Memphis Center
04:49PM 36.3731 -86.3439 48° Northeast 455 524 30,300 -2,040 Descending Memphis Center
04:50PM 36.4547 -86.2289 49° Northeast 449 517 28,300 -1,980 Descending Memphis Center
04:52PM 36.5839 -86.0456 49° Northeast 482 555 25,400 -1,680 Descending Indianapolis Center
04:53PM 36.6722 -85.9186 49° Northeast 481 554 24,000 -720 Descending Indianapolis Center
04:54PM 36.7528 -85.8014 49° Northeast 463 533 24,000  Level Indianapolis Center
04:55PM 36.8444 -85.6650 50° Northeast 484 557 24,000 -1,020 Level Indianapolis Center
04:56PM 36.9417 -85.5203 50° Northeast 463 533 22,000 -1,920 Descending Indianapolis Center
04:57PM 37.0211 -85.4081 48° Northeast 440 506 20,100 -960 Descending Indianapolis Center
04:58PM 37.1053 -85.2819 50° Northeast 436 502 20,000 -60 Descending Indianapolis Center
04:59PM 37.1864 -85.1606 50° Northeast 450 518 20,000 -780 Level Indianapolis Center
05:00PM 37.2661 -85.0439 49° Northeast 441 507 18,400 -1,740 Descending Indianapolis Center
05:01PM 37.3389 -84.9336 50° Northeast 413 475 16,500 -2,220 Descending Indianapolis Center
05:02PM 37.4097 -84.8278 50° Northeast 401 461 13,900 -2,100 Descending Indianapolis Center
05:03PM 37.4847 -84.7297 46° Northeast 397 457 12,200 -1,620 Descending Indianapolis Center
05:04PM 37.5856 -84.7042 11° North 321 369 10,600 -1,320 Descending Indianapolis Center
05:05PM 37.6697 -84.6947 North 304 350 9,500 -1,440 Descending Indianapolis Center
05:06PM 37.7469 -84.6878 North 285 328 7,700 -1,800 Descending Indianapolis Center
05:08PM 37.8231 -84.6789 North 276 318 5,900 -1,800 Descending Indianapolis Center